createdAt,value
2023-03-27T07:42:04.013Z,32.29
2023-03-27T07:47:12.442Z,32.88
2023-03-27T07:52:16.491Z,33.45
2023-03-27T07:57:19.849Z,33.96
2023-03-27T08:02:23.371Z,34.15
2023-03-27T08:07:26.183Z,33.31
2023-03-27T08:12:29.720Z,33.73
2023-03-27T08:17:33.916Z,35.57
2023-03-27T08:22:38.474Z,36.93
2023-03-27T08:27:41.703Z,37.33
2023-03-27T08:32:45.133Z,38.78
2023-03-27T08:37:48.447Z,40.72
2023-03-27T08:42:57.476Z,41.92
2023-03-27T08:48:44.020Z,37.34
2023-03-27T08:54:17.350Z,36.87
2023-03-27T08:59:25.420Z,38.39
2023-03-27T09:05:06.441Z,36.19
2023-03-27T09:10:39.870Z,32.13
2023-03-27T09:16:01.000Z,30.90
2023-03-27T09:21:55.110Z,32.39
2023-03-27T09:27:07.513Z,35.23
2023-03-27T09:32:16.135Z,37.24
2023-03-27T09:37:18.966Z,37.82
2023-03-27T09:42:38.208Z,37.99
2023-03-27T09:47:53.148Z,37.19
2023-03-27T09:53:14.299Z,37.00
2023-03-27T09:58:34.174Z,38.71
2023-03-27T10:03:43.010Z,41.06
2023-03-27T10:09:01.071Z,46.08
2023-03-27T10:14:16.334Z,50.42
2023-03-27T10:19:29.475Z,53.19
2023-03-27T10:24:36.041Z,54.98
2023-03-27T10:29:47.419Z,57.29
2023-03-27T10:34:58.113Z,59.26
2023-03-27T10:40:09.317Z,59.51
2023-03-27T10:45:51.590Z,58.81
2023-03-27T10:51:05.550Z,59.72
2023-03-27T10:56:40.783Z,59.76
2023-03-27T11:01:52.561Z,60.87
2023-03-27T11:07:01.017Z,63.06
2023-03-27T11:12:09.406Z,51.14
2023-03-27T11:17:20.220Z,56.58
2023-03-27T11:22:33.832Z,61.02
2023-03-27T11:27:50.063Z,58.07
2023-03-27T11:33:27.816Z,54.79
2023-03-27T11:47:35.726Z,58.06
2023-03-27T11:53:17.209Z,55.06
2023-03-27T11:59:00.415Z,59.45
2023-03-27T12:04:11.291Z,62.21
2023-03-27T12:09:37.962Z,52.83
2023-03-27T12:15:23.130Z,56.98
2023-03-27T12:20:54.372Z,59.59
2023-03-27T12:26:31.132Z,60.91
2023-03-27T12:32:00.276Z,59.59
2023-03-27T12:37:06.774Z,60.31
2023-03-27T12:42:16.052Z,59.66
2023-03-27T12:47:25.387Z,60.36
2023-03-27T12:52:28.685Z,59.54
2023-03-27T12:57:34.721Z,59.60
2023-03-27T13:03:14.719Z,58.06
2023-03-27T13:09:08.284Z,55.96
2023-03-27T13:15:07.169Z,56.15
2023-03-27T13:20:28.647Z,55.35
2023-03-27T13:26:02.156Z,55.77
2023-03-27T13:31:11.766Z,55.50
2023-03-27T13:36:19.902Z,55.83
2023-03-27T13:41:49.831Z,56.22
2023-03-27T13:47:02.238Z,55.95
2023-03-27T13:52:59.032Z,55.05
2023-03-27T13:58:46.310Z,54.02
2023-03-27T14:04:36.499Z,55.60
2023-03-27T14:10:13.929Z,55.92
2023-03-27T14:15:35.462Z,55.44
2023-03-27T14:21:09.992Z,54.29
2023-03-27T14:26:24.653Z,53.05
2023-03-27T14:31:35.339Z,54.01
2023-03-27T14:36:47.490Z,54.80
2023-03-27T14:42:01.643Z,55.11
2023-03-27T14:47:12.555Z,54.45
2023-03-27T14:52:25.053Z,52.65
2023-03-27T14:57:28.456Z,52.63
2023-03-27T15:02:35.245Z,51.66
2023-03-27T15:07:38.599Z,51.61
2023-03-27T15:12:47.920Z,52.11
2023-03-27T15:17:55.363Z,52.72
2023-03-27T15:23:19.077Z,53.17
2023-03-27T15:28:42.406Z,53.74
2023-03-27T15:34:14.197Z,54.02
2023-03-27T15:39:22.262Z,54.37
2023-03-27T15:44:33.550Z,53.86
2023-03-27T15:49:41.554Z,53.98
2023-03-27T15:54:55.877Z,54.33
2023-03-27T16:00:09.985Z,54.29
2023-03-27T16:05:17.829Z,53.38
2023-03-27T16:10:32.847Z,52.20
2023-03-27T16:15:41.819Z,50.54
2023-03-27T16:20:45.054Z,49.32
2023-03-27T16:25:47.954Z,49.23
2023-03-27T16:30:51.291Z,49.53
2023-03-27T16:35:56.513Z,49.72
2023-03-27T16:40:59.654Z,48.88
2023-03-27T16:46:06.587Z,48.11
2023-03-27T16:51:09.387Z,48.36
2023-03-27T16:56:13.874Z,48.29
2023-03-27T17:01:16.742Z,48.89
2023-03-27T17:06:21.971Z,49.36
2023-03-27T17:11:25.593Z,49.51
2023-03-27T17:16:28.944Z,49.52
2023-03-27T17:21:32.212Z,50.05
2023-03-27T17:26:36.980Z,50.21
2023-03-27T17:31:41.110Z,50.35
2023-03-27T17:36:54.023Z,50.72
2023-03-27T17:41:57.856Z,50.87
2023-03-27T17:47:01.116Z,50.93
2023-03-27T17:52:08.263Z,51.22
2023-03-27T17:57:11.468Z,51.58
2023-03-27T18:02:21.054Z,51.87
2023-03-27T18:07:24.486Z,52.31
2023-03-27T18:12:27.395Z,52.70
2023-03-27T18:17:30.793Z,52.98
2023-03-27T18:22:33.884Z,53.04
2023-03-27T18:27:43.410Z,53.22
2023-03-27T18:32:46.878Z,53.33
2023-03-27T18:37:49.859Z,54.04
2023-03-27T18:42:53.136Z,53.75
2023-03-27T18:47:56.103Z,53.65
2023-03-27T18:52:59.420Z,53.93
2023-03-27T18:58:02.523Z,54.23
2023-03-27T19:03:06.703Z,54.49
2023-03-27T19:08:10.322Z,54.64
2023-03-27T19:13:13.182Z,54.85
2023-03-27T19:18:37.063Z,54.85
2023-03-27T19:23:39.911Z,55.21
2023-03-27T19:28:44.298Z,55.12
2023-03-27T19:33:47.244Z,55.14
2023-03-27T19:38:51.402Z,55.22
2023-03-27T19:43:54.204Z,55.43
2023-03-27T19:48:57.008Z,56.01
2023-03-27T19:54:00.089Z,56.38
2023-03-27T19:59:05.173Z,56.05
2023-03-27T20:04:08.098Z,55.84
2023-03-27T20:09:12.562Z,55.68
2023-03-27T20:14:15.449Z,55.91
2023-03-27T20:19:20.270Z,56.21
2023-03-27T20:24:25.972Z,56.39
2023-03-27T20:29:28.960Z,56.47
2023-03-27T20:34:32.272Z,56.79
2023-03-27T20:39:35.170Z,56.68
2023-03-27T20:44:37.932Z,56.75
2023-03-27T20:49:45.825Z,57.04
2023-03-27T20:54:48.615Z,57.09
2023-03-27T20:59:54.078Z,57.29
2023-03-27T21:04:56.812Z,57.93
2023-03-27T21:10:00.998Z,58.08
2023-03-27T21:15:04.172Z,57.76
2023-03-27T21:20:09.544Z,57.98
2023-03-27T21:25:12.428Z,58.36
2023-03-27T21:30:16.489Z,58.75
2023-03-27T21:35:19.583Z,58.89
2023-03-27T21:40:25.678Z,58.98
2023-03-27T21:45:28.475Z,58.99
2023-03-27T21:50:31.378Z,59.06
2023-03-27T21:55:34.873Z,59.19
2023-03-27T22:00:37.795Z,59.37
2023-03-27T22:05:40.887Z,59.42
2023-03-27T22:10:43.668Z,59.59
2023-03-27T22:15:46.519Z,59.82
2023-03-27T22:20:49.402Z,59.92
2023-03-27T22:25:56.068Z,60.19
2023-03-27T22:30:58.939Z,60.29
2023-03-27T22:36:02.256Z,60.34
2023-03-27T22:41:08.488Z,60.45
2023-03-27T22:46:18.473Z,60.76
2023-03-27T22:51:21.279Z,60.76
2023-03-27T22:56:24.708Z,61.10
2023-03-27T23:01:27.674Z,61.21
2023-03-27T23:06:31.050Z,61.25
2023-03-27T23:11:33.866Z,61.50
2023-03-27T23:16:37.017Z,61.89
2023-03-27T23:21:39.909Z,61.94
2023-03-27T23:26:42.671Z,61.94
2023-03-27T23:31:45.810Z,61.82
2023-03-27T23:36:48.802Z,61.87
2023-03-27T23:41:51.579Z,61.85
2023-03-27T23:46:54.370Z,61.86
2023-03-27T23:51:57.363Z,61.94
2023-03-27T23:57:00.209Z,62.17
